sensor_id;sensor_type;location;lat;lon;timestamp;P1;durP1;ratioP1;P2;durP2;ratioP2
36789;SDS011;22740;52.182;8.780;2024-03-23T00:59:41;17.38;;;6.22;;
36789;SDS011;22740;52.182;8.780;2024-03-23T01:05:42;14.68;;;6.03;;
36789;SDS011;22740;52.182;8.780;2024-03-23T01:11:42;16.55;;;6.53;;
36789;SDS011;22740;52.182;8.780;2024-03-23T01:17:43;12.57;;;5.05;;
36789;SDS011;22740;52.182;8.780;2024-03-23T01:23:44;17.83;;;5.90;;
36789;SDS011;22740;52.182;8.780;2024-03-23T01:29:45;18.42;;;5.45;;
36789;SDS011;22740;52.182;8.780;2024-03-23T01:35:46;16.15;;;5.35;;
36789;SDS011;22740;52.182;8.780;2024-03-23T01:41:47;13.77;;;5.63;;
36789;SDS011;22740;52.182;8.780;2024-03-23T01:47:49;16.17;;;5.25;;
36789;SDS011;22740;52.182;8.780;2024-03-23T01:53:53;14.82;;;5.82;;
36789;SDS011;22740;52.182;8.780;2024-03-23T01:59:54;12.75;;;5.60;;
36789;SDS011;22740;52.182;8.780;2024-03-23T02:05:55;12.57;;;6.00;;
36789;SDS011;22740;52.182;8.780;2024-03-23T02:11:57;13.68;;;5.15;;
36789;SDS011;22740;52.182;8.780;2024-03-23T02:17:58;10.75;;;5.03;;
36789;SDS011;22740;52.182;8.780;2024-03-23T02:23:59;17.38;;;5.55;;
36789;SDS011;22740;52.182;8.780;2024-03-23T02:30:00;13.60;;;5.40;;
36789;SDS011;22740;52.182;8.780;2024-03-23T02:36:02;11.50;;;5.30;;
36789;SDS011;22740;52.182;8.780;2024-03-23T02:42:03;11.10;;;4.50;;
36789;SDS011;22740;52.182;8.780;2024-03-23T02:48:04;9.63;;;4.00;;
36789;SDS011;22740;52.182;8.780;2024-03-23T02:54:05;11.25;;;4.45;;
36789;SDS011;22740;52.182;8.780;2024-03-23T03:00:06;9.98;;;4.28;;
36789;SDS011;22740;52.182;8.780;2024-03-23T03:06:07;11.30;;;3.63;;
36789;SDS011;22740;52.182;8.780;2024-03-23T03:12:09;8.35;;;3.40;;
36789;SDS011;22740;52.182;8.780;2024-03-23T03:18:10;9.38;;;4.10;;
36789;SDS011;22740;52.182;8.780;2024-03-23T03:24:11;6.72;;;3.30;;
36789;SDS011;22740;52.182;8.780;2024-03-23T03:30:12;8.07;;;2.80;;
36789;SDS011;22740;52.182;8.780;2024-03-23T03:36:13;8.50;;;3.10;;
36789;SDS011;22740;52.182;8.780;2024-03-23T03:42:14;8.00;;;2.72;;
36789;SDS011;22740;52.182;8.780;2024-03-23T03:48:15;9.68;;;3.55;;
36789;SDS011;22740;52.182;8.780;2024-03-23T03:54:16;8.65;;;2.63;;
36789;SDS011;22740;52.182;8.780;2024-03-23T04:00:17;7.78;;;3.10;;
36789;SDS011;22740;52.182;8.780;2024-03-23T04:06:18;9.55;;;3.78;;
36789;SDS011;22740;52.182;8.780;2024-03-23T04:12:20;11.63;;;3.63;;
36789;SDS011;22740;52.182;8.780;2024-03-23T04:18:21;7.03;;;3.50;;
36789;SDS011;22740;52.182;8.780;2024-03-23T04:24:22;12.60;;;4.10;;
36789;SDS011;22740;52.182;8.780;2024-03-23T04:30:23;8.40;;;3.70;;
36789;SDS011;22740;52.182;8.780;2024-03-23T04:36:25;10.07;;;3.95;;
36789;SDS011;22740;52.182;8.780;2024-03-23T04:42:26;8.32;;;3.75;;
36789;SDS011;22740;52.182;8.780;2024-03-23T04:48:28;7.30;;;3.65;;
36789;SDS011;22740;52.182;8.780;2024-03-23T04:54:28;6.55;;;3.60;;
36789;SDS011;22740;52.182;8.780;2024-03-23T05:00:30;7.65;;;3.70;;
36789;SDS011;22740;52.182;8.780;2024-03-23T05:06:31;9.05;;;4.20;;
36789;SDS011;22740;52.182;8.780;2024-03-23T05:12:31;12.75;;;4.20;;
36789;SDS011;22740;52.182;8.780;2024-03-23T05:18:33;9.57;;;3.75;;
36789;SDS011;22740;52.182;8.780;2024-03-23T05:24:34;8.55;;;4.57;;
36789;SDS011;22740;52.182;8.780;2024-03-23T05:30:37;7.40;;;3.63;;
36789;SDS011;22740;52.182;8.780;2024-03-23T05:36:38;9.05;;;3.40;;
36789;SDS011;22740;52.182;8.780;2024-03-23T05:42:39;10.52;;;4.20;;
36789;SDS011;22740;52.182;8.780;2024-03-23T05:48:40;12.02;;;4.15;;
36789;SDS011;22740;52.182;8.780;2024-03-23T05:54:41;9.13;;;3.97;;
36789;SDS011;22740;52.182;8.780;2024-03-23T06:00:43;13.45;;;4.68;;
36789;SDS011;22740;52.182;8.780;2024-03-23T06:06:44;17.38;;;5.25;;
36789;SDS011;22740;52.182;8.780;2024-03-23T06:12:46;13.32;;;5.18;;
36789;SDS011;22740;52.182;8.780;2024-03-23T06:18:52;10.73;;;4.97;;
36789;SDS011;22740;52.182;8.780;2024-03-23T06:24:53;13.25;;;4.80;;
36789;SDS011;22740;52.182;8.780;2024-03-23T06:30:54;11.25;;;5.30;;
36789;SDS011;22740;52.182;8.780;2024-03-23T06:36:55;11.25;;;4.88;;
36789;SDS011;22740;52.182;8.780;2024-03-23T06:42:56;13.63;;;5.20;;
36789;SDS011;22740;52.182;8.780;2024-03-23T06:48:57;10.40;;;5.05;;
36789;SDS011;22740;52.182;8.780;2024-03-23T06:54:58;15.93;;;4.90;;
36789;SDS011;22740;52.182;8.780;2024-03-23T07:01:04;14.88;;;5.35;;
36789;SDS011;22740;52.182;8.780;2024-03-23T07:07:08;16.03;;;5.60;;
36789;SDS011;22740;52.182;8.780;2024-03-23T07:13:09;24.63;;;6.15;;
36789;SDS011;22740;52.182;8.780;2024-03-23T07:19:10;15.25;;;6.07;;
36789;SDS011;22740;52.182;8.780;2024-03-23T07:25:11;15.07;;;6.80;;
36789;SDS011;22740;52.182;8.780;2024-03-23T07:31:15;18.63;;;7.05;;
36789;SDS011;22740;52.182;8.780;2024-03-23T07:37:16;19.58;;;8.52;;
36789;SDS011;22740;52.182;8.780;2024-03-23T07:43:17;18.98;;;7.15;;
36789;SDS011;22740;52.182;8.780;2024-03-23T07:49:18;35.25;;;8.50;;
36789;SDS011;22740;52.182;8.780;2024-03-23T07:55:19;23.00;;;7.53;;
36789;SDS011;22740;52.182;8.780;2024-03-23T08:01:21;17.77;;;6.95;;
36789;SDS011;22740;52.182;8.780;2024-03-23T08:07:22;16.08;;;6.80;;
36789;SDS011;22740;52.182;8.780;2024-03-23T08:13:23;17.75;;;6.05;;
36789;SDS011;22740;52.182;8.780;2024-03-23T08:19:24;17.63;;;5.82;;
36789;SDS011;22740;52.182;8.780;2024-03-23T08:25:25;17.42;;;5.38;;
36789;SDS011;22740;52.182;8.780;2024-03-23T08:31:26;19.48;;;5.20;;
36789;SDS011;22740;52.182;8.780;2024-03-23T08:37:27;18.83;;;4.68;;
36789;SDS011;22740;52.182;8.780;2024-03-23T08:43:28;10.55;;;4.60;;
36789;SDS011;22740;52.182;8.780;2024-03-23T08:49:32;17.42;;;4.93;;
36789;SDS011;22740;52.182;8.780;2024-03-23T08:55:33;12.93;;;4.63;;
36789;SDS011;22740;52.182;8.780;2024-03-23T09:01:35;14.43;;;4.50;;
36789;SDS011;22740;52.182;8.780;2024-03-23T09:07:35;11.40;;;3.30;;
36789;SDS011;22740;52.182;8.780;2024-03-23T09:13:37;13.20;;;3.60;;
36789;SDS011;22740;52.182;8.780;2024-03-23T09:19:38;12.52;;;3.47;;
36789;SDS011;22740;52.182;8.780;2024-03-23T09:25:40;16.13;;;4.00;;
36789;SDS011;22740;52.182;8.780;2024-03-23T09:31:41;12.13;;;4.05;;
36789;SDS011;22740;52.182;8.780;2024-03-23T09:37:42;8.98;;;2.90;;
36789;SDS011;22740;52.182;8.780;2024-03-23T09:43:45;9.15;;;2.75;;
36789;SDS011;22740;52.182;8.780;2024-03-23T09:49:48;7.70;;;2.60;;
36789;SDS011;22740;52.182;8.780;2024-03-23T09:55:49;8.60;;;2.80;;
36789;SDS011;22740;52.182;8.780;2024-03-23T10:01:50;11.77;;;3.47;;
36789;SDS011;22740;52.182;8.780;2024-03-23T10:07:52;9.63;;;2.88;;
36789;SDS011;22740;52.182;8.780;2024-03-23T10:13:53;9.40;;;3.03;;
36789;SDS011;22740;52.182;8.780;2024-03-23T10:19:57;7.10;;;2.58;;
36789;SDS011;22740;52.182;8.780;2024-03-23T10:32:26;9.02;;;2.45;;
36789;SDS011;22740;52.182;8.780;2024-03-23T10:38:27;7.90;;;2.90;;
36789;SDS011;22740;52.182;8.780;2024-03-23T10:44:31;6.10;;;2.17;;
36789;SDS011;22740;52.182;8.780;2024-03-23T10:50:32;7.30;;;2.78;;
36789;SDS011;22740;52.182;8.780;2024-03-23T10:56:34;7.05;;;2.65;;
36789;SDS011;22740;52.182;8.780;2024-03-23T11:02:37;8.03;;;2.57;;
36789;SDS011;22740;52.182;8.780;2024-03-23T11:08:38;4.90;;;2.42;;
36789;SDS011;22740;52.182;8.780;2024-03-23T11:14:40;2.65;;;1.30;;
36789;SDS011;22740;52.182;8.780;2024-03-23T11:20:41;3.40;;;1.30;;
36789;SDS011;22740;52.182;8.780;2024-03-23T11:26:42;4.00;;;1.40;;
36789;SDS011;22740;52.182;8.780;2024-03-23T11:32:44;3.55;;;1.20;;
36789;SDS011;22740;52.182;8.780;2024-03-23T11:38:45;3.15;;;1.42;;
36789;SDS011;22740;52.182;8.780;2024-03-23T11:44:46;5.35;;;1.33;;
36789;SDS011;22740;52.182;8.780;2024-03-23T11:50:54;2.97;;;1.08;;
36789;SDS011;22740;52.182;8.780;2024-03-23T11:56:58;5.45;;;2.03;;
36789;SDS011;22740;52.182;8.780;2024-03-23T12:03:08;7.20;;;2.03;;
36789;SDS011;22740;52.182;8.780;2024-03-23T12:09:10;3.47;;;1.40;;
36789;SDS011;22740;52.182;8.780;2024-03-23T12:15:11;4.05;;;2.00;;
36789;SDS011;22740;52.182;8.780;2024-03-23T12:21:13;6.53;;;1.80;;
36789;SDS011;22740;52.182;8.780;2024-03-23T12:27:14;3.63;;;1.30;;
36789;SDS011;22740;52.182;8.780;2024-03-23T12:33:15;4.30;;;1.40;;
36789;SDS011;22740;52.182;8.780;2024-03-23T12:39:16;2.92;;;1.48;;
36789;SDS011;22740;52.182;8.780;2024-03-23T12:45:16;3.25;;;1.33;;
36789;SDS011;22740;52.182;8.780;2024-03-23T12:51:17;2.25;;;1.40;;
36789;SDS011;22740;52.182;8.780;2024-03-23T12:57:18;4.00;;;1.40;;
36789;SDS011;22740;52.182;8.780;2024-03-23T13:03:19;5.45;;;1.50;;
36789;SDS011;22740;52.182;8.780;2024-03-23T13:09:20;2.92;;;1.70;;
36789;SDS011;22740;52.182;8.780;2024-03-23T13:15:21;5.03;;;1.80;;
36789;SDS011;22740;52.182;8.780;2024-03-23T13:21:22;3.13;;;1.92;;
36789;SDS011;22740;52.182;8.780;2024-03-23T13:27:23;3.05;;;2.75;;
36789;SDS011;22740;52.182;8.780;2024-03-23T13:33:24;3.60;;;1.50;;
36789;SDS011;22740;52.182;8.780;2024-03-23T13:39:25;2.47;;;1.10;;
36789;SDS011;22740;52.182;8.780;2024-03-23T13:45:28;3.13;;;0.90;;
36789;SDS011;22740;52.182;8.780;2024-03-23T13:51:29;1.70;;;0.60;;
36789;SDS011;22740;52.182;8.780;2024-03-23T13:57:30;2.92;;;0.73;;
36789;SDS011;22740;52.182;8.780;2024-03-23T14:03:32;3.47;;;0.80;;
36789;SDS011;22740;52.182;8.780;2024-03-23T14:09:32;2.88;;;1.02;;
36789;SDS011;22740;52.182;8.780;2024-03-23T14:15:33;3.40;;;1.20;;
36789;SDS011;22740;52.182;8.780;2024-03-23T14:21:36;2.92;;;1.25;;
36789;SDS011;22740;52.182;8.780;2024-03-23T14:27:38;2.70;;;1.50;;
36789;SDS011;22740;52.182;8.780;2024-03-23T14:33:39;3.28;;;1.40;;
36789;SDS011;22740;52.182;8.780;2024-03-23T14:39:50;2.45;;;1.50;;
36789;SDS011;22740;52.182;8.780;2024-03-23T14:58:17;3.17;;;1.80;;
36789;SDS011;22740;52.182;8.780;2024-03-23T15:04:18;3.83;;;1.45;;
36789;SDS011;22740;52.182;8.780;2024-03-23T15:10:20;3.85;;;1.40;;
36789;SDS011;22740;52.182;8.780;2024-03-23T15:16:20;3.78;;;1.80;;
36789;SDS011;22740;52.182;8.780;2024-03-23T15:22:21;3.17;;;1.58;;
36789;SDS011;22740;52.182;8.780;2024-03-23T15:28:26;2.78;;;1.27;;
36789;SDS011;22740;52.182;8.780;2024-03-23T15:34:38;2.17;;;1.02;;
36789;SDS011;22740;52.182;8.780;2024-03-23T15:40:39;2.97;;;1.38;;
36789;SDS011;22740;52.182;8.780;2024-03-23T15:46:39;3.85;;;1.55;;
36789;SDS011;22740;52.182;8.780;2024-03-23T15:52:41;3.67;;;1.60;;
36789;SDS011;22740;52.182;8.780;2024-03-23T15:58:41;2.72;;;2.08;;
36789;SDS011;22740;52.182;8.780;2024-03-23T16:04:43;5.40;;;3.05;;
36789;SDS011;22740;52.182;8.780;2024-03-23T16:10:45;4.68;;;2.30;;
36789;SDS011;22740;52.182;8.780;2024-03-23T16:16:46;4.47;;;1.10;;
36789;SDS011;22740;52.182;8.780;2024-03-23T16:22:47;2.30;;;1.13;;
36789;SDS011;22740;52.182;8.780;2024-03-23T16:28:48;1.77;;;1.30;;
36789;SDS011;22740;52.182;8.780;2024-03-23T16:34:49;4.60;;;1.20;;
36789;SDS011;22740;52.182;8.780;2024-03-23T16:40:56;6.10;;;1.85;;
36789;SDS011;22740;52.182;8.780;2024-03-23T16:46:58;3.83;;;1.80;;
36789;SDS011;22740;52.182;8.780;2024-03-23T16:52:59;5.38;;;1.60;;
36789;SDS011;22740;52.182;8.780;2024-03-23T16:59:00;6.72;;;1.70;;
36789;SDS011;22740;52.182;8.780;2024-03-23T17:05:01;2.28;;;1.60;;
36789;SDS011;22740;52.182;8.780;2024-03-23T17:11:02;5.53;;;5.13;;
36789;SDS011;22740;52.182;8.780;2024-03-23T17:23:08;5.45;;;4.90;;
36789;SDS011;22740;52.182;8.780;2024-03-23T17:29:11;6.25;;;3.17;;
36789;SDS011;22740;52.182;8.780;2024-03-23T17:35:12;4.60;;;3.47;;
36789;SDS011;22740;52.182;8.780;2024-03-23T17:41:13;7.88;;;3.58;;
36789;SDS011;22740;52.182;8.780;2024-03-23T17:47:14;2.67;;;1.38;;
36789;SDS011;22740;52.182;8.780;2024-03-23T17:53:15;5.25;;;1.52;;
36789;SDS011;22740;52.182;8.780;2024-03-23T17:59:16;3.15;;;1.50;;
36789;SDS011;22740;52.182;8.780;2024-03-23T18:05:17;6.30;;;2.03;;
36789;SDS011;22740;52.182;8.780;2024-03-23T18:11:22;4.38;;;1.80;;
36789;SDS011;22740;52.182;8.780;2024-03-23T18:17:22;5.80;;;2.30;;
36789;SDS011;22740;52.182;8.780;2024-03-23T18:23:23;5.38;;;1.90;;
36789;SDS011;22740;52.182;8.780;2024-03-23T18:29:24;4.43;;;2.30;;
36789;SDS011;22740;52.182;8.780;2024-03-23T18:35:25;4.40;;;1.95;;
36789;SDS011;22740;52.182;8.780;2024-03-23T18:41:26;3.70;;;2.30;;
36789;SDS011;22740;52.182;8.780;2024-03-23T18:47:29;5.18;;;2.45;;
36789;SDS011;22740;52.182;8.780;2024-03-23T18:53:30;5.63;;;2.60;;
36789;SDS011;22740;52.182;8.780;2024-03-23T18:59:30;4.93;;;2.30;;
36789;SDS011;22740;52.182;8.780;2024-03-23T19:05:31;4.25;;;2.42;;
36789;SDS011;22740;52.182;8.780;2024-03-23T19:11:32;4.13;;;2.65;;
36789;SDS011;22740;52.182;8.780;2024-03-23T19:17:33;5.60;;;2.70;;
36789;SDS011;22740;52.182;8.780;2024-03-23T19:23:35;4.15;;;2.30;;
36789;SDS011;22740;52.182;8.780;2024-03-23T19:29:36;5.82;;;2.72;;
36789;SDS011;22740;52.182;8.780;2024-03-23T19:35:36;6.82;;;2.35;;
36789;SDS011;22740;52.182;8.780;2024-03-23T19:41:38;4.43;;;2.08;;
36789;SDS011;22740;52.182;8.780;2024-03-23T19:47:39;7.00;;;2.25;;
36789;SDS011;22740;52.182;8.780;2024-03-23T19:53:40;4.57;;;2.25;;
36789;SDS011;22740;52.182;8.780;2024-03-23T19:59:41;4.55;;;1.95;;
36789;SDS011;22740;52.182;8.780;2024-03-23T20:05:43;3.45;;;1.85;;
36789;SDS011;22740;52.182;8.780;2024-03-23T20:11:45;6.13;;;1.98;;
36789;SDS011;22740;52.182;8.780;2024-03-23T20:17:46;3.13;;;1.83;;
36789;SDS011;22740;52.182;8.780;2024-03-23T20:23:49;3.88;;;1.90;;
36789;SDS011;22740;52.182;8.780;2024-03-23T20:29:50;3.40;;;1.77;;
36789;SDS011;22740;52.182;8.780;2024-03-23T20:35:53;2.92;;;1.75;;
36789;SDS011;22740;52.182;8.780;2024-03-23T20:41:54;2.78;;;1.80;;
36789;SDS011;22740;52.182;8.780;2024-03-23T20:47:55;3.15;;;1.70;;
36789;SDS011;22740;52.182;8.780;2024-03-23T20:53:55;3.47;;;1.80;;
36789;SDS011;22740;52.182;8.780;2024-03-23T20:59:56;4.15;;;2.33;;
36789;SDS011;22740;52.182;8.780;2024-03-23T21:05:57;5.18;;;2.40;;
36789;SDS011;22740;52.182;8.780;2024-03-23T21:11:59;3.35;;;2.17;;
36789;SDS011;22740;52.182;8.780;2024-03-23T21:18:00;4.15;;;2.40;;
36789;SDS011;22740;52.182;8.780;2024-03-23T21:24:01;3.90;;;2.17;;
36789;SDS011;22740;52.182;8.780;2024-03-23T21:30:05;3.97;;;2.40;;
36789;SDS011;22740;52.182;8.780;2024-03-23T21:36:06;6.10;;;2.22;;
36789;SDS011;22740;52.182;8.780;2024-03-23T21:42:07;3.92;;;2.22;;
36789;SDS011;22740;52.182;8.780;2024-03-23T21:48:08;4.68;;;2.28;;
36789;SDS011;22740;52.182;8.780;2024-03-23T21:54:09;3.67;;;2.47;;
36789;SDS011;22740;52.182;8.780;2024-03-23T22:00:10;5.47;;;3.05;;
36789;SDS011;22740;52.182;8.780;2024-03-23T22:06:12;4.38;;;3.10;;
36789;SDS011;22740;52.182;8.780;2024-03-23T22:12:12;5.15;;;3.40;;
36789;SDS011;22740;52.182;8.780;2024-03-23T22:18:13;5.22;;;3.15;;
36789;SDS011;22740;52.182;8.780;2024-03-23T22:24:14;7.30;;;3.63;;
36789;SDS011;22740;52.182;8.780;2024-03-23T22:30:15;7.00;;;3.38;;
36789;SDS011;22740;52.182;8.780;2024-03-23T22:36:16;9.93;;;4.18;;
36789;SDS011;22740;52.182;8.780;2024-03-23T22:42:17;5.43;;;3.63;;
36789;SDS011;22740;52.182;8.780;2024-03-23T22:48:18;9.10;;;3.92;;
36789;SDS011;22740;52.182;8.780;2024-03-23T22:54:19;5.38;;;3.22;;
36789;SDS011;22740;52.182;8.780;2024-03-23T23:00:20;7.60;;;4.18;;
36789;SDS011;22740;52.182;8.780;2024-03-23T23:06:22;6.00;;;4.03;;
36789;SDS011;22740;52.182;8.780;2024-03-23T23:12:23;7.40;;;4.35;;
36789;SDS011;22740;52.182;8.780;2024-03-23T23:18:24;7.13;;;4.75;;
36789;SDS011;22740;52.182;8.780;2024-03-23T23:24:25;7.78;;;4.95;;
36789;SDS011;22740;52.182;8.780;2024-03-23T23:30:26;8.20;;;4.72;;
36789;SDS011;22740;52.182;8.780;2024-03-23T23:36:27;9.55;;;5.43;;
36789;SDS011;22740;52.182;8.780;2024-03-23T23:42:28;8.52;;;5.00;;
36789;SDS011;22740;52.182;8.780;2024-03-23T23:48:29;7.97;;;4.65;;
36789;SDS011;22740;52.182;8.780;2024-03-23T23:54:30;9.52;;;5.38;;
